sensor_id;sensor_type;location;lat;lon;timestamp;P1;durP1;ratioP1;P2;durP2;ratioP2
52946;SDS011;45776;40.400;17.260;2022-09-13T00:00:03;9.82;;;8.52;;
52946;SDS011;45776;40.400;17.260;2022-09-13T00:02:30;8.90;;;8.00;;
52946;SDS011;45776;40.400;17.260;2022-09-13T00:04:56;7.03;;;6.40;;
52946;SDS011;45776;40.400;17.260;2022-09-13T00:07:21;7.25;;;5.40;;
52946;SDS011;45776;40.400;17.260;2022-09-13T00:09:47;8.27;;;4.72;;
52946;SDS011;45776;40.400;17.260;2022-09-13T00:12:12;7.07;;;4.00;;
52946;SDS011;45776;40.400;17.260;2022-09-13T00:14:38;4.60;;;3.60;;
52946;SDS011;45776;40.400;17.260;2022-09-13T00:17:03;4.95;;;3.65;;
52946;SDS011;45776;40.400;17.260;2022-09-13T00:19:29;6.03;;;2.47;;
52946;SDS011;45776;40.400;17.260;2022-09-13T00:21:54;2.95;;;1.95;;
52946;SDS011;45776;40.400;17.260;2022-09-13T00:24:20;5.10;;;1.60;;
52946;SDS011;45776;40.400;17.260;2022-09-13T00:26:45;6.18;;;1.50;;
52946;SDS011;45776;40.400;17.260;2022-09-13T00:29:11;4.28;;;1.58;;
52946;SDS011;45776;40.400;17.260;2022-09-13T00:31:36;3.25;;;1.10;;
52946;SDS011;45776;40.400;17.260;2022-09-13T00:34:02;3.47;;;1.00;;
52946;SDS011;45776;40.400;17.260;2022-09-13T00:36:27;3.60;;;0.98;;
52946;SDS011;45776;40.400;17.260;2022-09-13T00:38:53;2.40;;;1.00;;
52946;SDS011;45776;40.400;17.260;2022-09-13T00:41:19;3.28;;;1.15;;
52946;SDS011;45776;40.400;17.260;2022-09-13T00:43:49;4.97;;;1.95;;
52946;SDS011;45776;40.400;17.260;2022-09-13T00:46:24;4.35;;;2.80;;
52946;SDS011;45776;40.400;17.260;2022-09-13T00:49:11;4.85;;;3.10;;
52946;SDS011;45776;40.400;17.260;2022-09-13T00:51:44;7.10;;;3.13;;
52946;SDS011;45776;40.400;17.260;2022-09-13T00:54:15;3.22;;;2.92;;
52946;SDS011;45776;40.400;17.260;2022-09-13T00:56:45;4.05;;;2.38;;
52946;SDS011;45776;40.400;17.260;2022-09-13T00:59:17;2.83;;;2.13;;
52946;SDS011;45776;40.400;17.260;2022-09-13T01:01:48;4.97;;;1.60;;
52946;SDS011;45776;40.400;17.260;2022-09-13T01:04:19;3.80;;;1.30;;
52946;SDS011;45776;40.400;17.260;2022-09-13T01:06:46;2.65;;;1.00;;
52946;SDS011;45776;40.400;17.260;2022-09-13T01:09:16;2.45;;;0.70;;
52946;SDS011;45776;40.400;17.260;2022-09-13T01:11:49;1.90;;;0.70;;
52946;SDS011;45776;40.400;17.260;2022-09-13T01:14:28;2.50;;;0.70;;
52946;SDS011;45776;40.400;17.260;2022-09-13T01:16:55;3.35;;;0.68;;
52946;SDS011;45776;40.400;17.260;2022-09-13T01:19:20;1.92;;;0.68;;
52946;SDS011;45776;40.400;17.260;2022-09-13T01:22:01;1.15;;;0.70;;
52946;SDS011;45776;40.400;17.260;2022-09-13T01:30:47;2.05;;;0.75;;
52946;SDS011;45776;40.400;17.260;2022-09-13T01:46:30;2.30;;;0.60;;
52946;SDS011;45776;40.400;17.260;2022-09-13T01:54:28;2.30;;;0.63;;
52946;SDS011;45776;40.400;17.260;2022-09-13T01:57:16;2.33;;;0.80;;
52946;SDS011;45776;40.400;17.260;2022-09-13T02:00:10;2.00;;;0.60;;
52946;SDS011;45776;40.400;17.260;2022-09-13T02:02:39;1.20;;;0.57;;
52946;SDS011;45776;40.400;17.260;2022-09-13T02:05:40;2.30;;;0.60;;
52946;SDS011;45776;40.400;17.260;2022-09-13T02:08:14;1.48;;;0.82;;
52946;SDS011;45776;40.400;17.260;2022-09-13T02:10:57;3.30;;;0.77;;
52946;SDS011;45776;40.400;17.260;2022-09-13T02:13:30;3.03;;;0.70;;
52946;SDS011;45776;40.400;17.260;2022-09-13T02:16:04;2.50;;;0.80;;
52946;SDS011;45776;40.400;17.260;2022-09-13T02:18:35;1.05;;;0.65;;
52946;SDS011;45776;40.400;17.260;2022-09-13T02:21:14;6.82;;;0.80;;
52946;SDS011;45776;40.400;17.260;2022-09-13T02:23:53;1.52;;;0.50;;
52946;SDS011;45776;40.400;17.260;2022-09-13T02:26:24;2.58;;;0.57;;
52946;SDS011;45776;40.400;17.260;2022-09-13T02:28:53;2.85;;;0.52;;
52946;SDS011;45776;40.400;17.260;2022-09-13T02:31:27;0.90;;;0.60;;
52946;SDS011;45776;40.400;17.260;2022-09-13T02:34:06;2.58;;;0.68;;
52946;SDS011;45776;40.400;17.260;2022-09-13T02:36:42;1.33;;;0.50;;
52946;SDS011;45776;40.400;17.260;2022-09-13T02:39:13;2.35;;;0.50;;
52946;SDS011;45776;40.400;17.260;2022-09-13T02:44:30;3.97;;;0.80;;
52946;SDS011;45776;40.400;17.260;2022-09-13T02:52:47;1.05;;;0.60;;
52946;SDS011;45776;40.400;17.260;2022-09-13T02:55:44;2.25;;;0.73;;
52946;SDS011;45776;40.400;17.260;2022-09-13T02:58:23;1.38;;;0.50;;
52946;SDS011;45776;40.400;17.260;2022-09-13T03:00:55;3.03;;;0.60;;
52946;SDS011;45776;40.400;17.260;2022-09-13T03:03:20;1.55;;;0.50;;
52946;SDS011;45776;40.400;17.260;2022-09-13T03:05:46;1.88;;;0.73;;
52946;SDS011;45776;40.400;17.260;2022-09-13T03:08:12;6.30;;;0.60;;
52946;SDS011;45776;40.400;17.260;2022-09-13T03:22:05;1.60;;;0.60;;
52946;SDS011;45776;40.400;17.260;2022-09-13T03:30:04;2.00;;;0.40;;
52946;SDS011;45776;40.400;17.260;2022-09-13T03:32:48;1.40;;;0.50;;
52946;SDS011;45776;40.400;17.260;2022-09-13T03:38:07;2.08;;;0.75;;
52946;SDS011;45776;40.400;17.260;2022-09-13T03:41:24;1.67;;;0.50;;
52946;SDS011;45776;40.400;17.260;2022-09-13T03:43:34;2.05;;;0.50;;
52946;SDS011;45776;40.400;17.260;2022-09-13T03:46:03;1.00;;;0.60;;
52946;SDS011;45776;40.400;17.260;2022-09-13T03:48:34;0.70;;;0.50;;
52946;SDS011;45776;40.400;17.260;2022-09-13T03:51:02;3.13;;;0.50;;
52946;SDS011;45776;40.400;17.260;2022-09-13T03:53:29;1.83;;;0.70;;
52946;SDS011;45776;40.400;17.260;2022-09-13T03:55:58;1.65;;;0.80;;
52946;SDS011;45776;40.400;17.260;2022-09-13T03:58:24;0.93;;;0.70;;
52946;SDS011;45776;40.400;17.260;2022-09-13T04:00:50;0.70;;;0.40;;
52946;SDS011;45776;40.400;17.260;2022-09-13T04:03:19;1.42;;;0.82;;
52946;SDS011;45776;40.400;17.260;2022-09-13T04:05:44;1.45;;;0.50;;
52946;SDS011;45776;40.400;17.260;2022-09-13T04:08:10;2.40;;;0.55;;
52946;SDS011;45776;40.400;17.260;2022-09-13T04:10:36;1.85;;;0.47;;
52946;SDS011;45776;40.400;17.260;2022-09-13T04:13:02;0.98;;;0.60;;
52946;SDS011;45776;40.400;17.260;2022-09-13T04:15:28;0.68;;;0.40;;
52946;SDS011;45776;40.400;17.260;2022-09-13T04:17:55;1.80;;;0.50;;
52946;SDS011;45776;40.400;17.260;2022-09-13T04:20:21;0.70;;;0.40;;
52946;SDS011;45776;40.400;17.260;2022-09-13T04:22:52;5.22;;;3.67;;
52946;SDS011;45776;40.400;17.260;2022-09-13T04:25:18;9.73;;;5.75;;
52946;SDS011;45776;40.400;17.260;2022-09-13T04:27:44;34.75;;;22.27;;
52946;SDS011;45776;40.400;17.260;2022-09-13T04:30:10;134.80;;;71.18;;
52946;SDS011;45776;40.400;17.260;2022-09-13T04:32:36;346.40;;;140.38;;
52946;SDS011;45776;40.400;17.260;2022-09-13T04:35:01;233.45;;;80.43;;
52946;SDS011;45776;40.400;17.260;2022-09-13T04:37:26;122.35;;;43.55;;
52946;SDS011;45776;40.400;17.260;2022-09-13T04:39:52;77.32;;;26.58;;
52946;SDS011;45776;40.400;17.260;2022-09-13T04:42:17;20.17;;;7.22;;
52946;SDS011;45776;40.400;17.260;2022-09-13T04:44:43;17.15;;;5.38;;
52946;SDS011;45776;40.400;17.260;2022-09-13T04:47:09;27.80;;;7.72;;
52946;SDS011;45776;40.400;17.260;2022-09-13T04:49:35;20.65;;;6.20;;
52946;SDS011;45776;40.400;17.260;2022-09-13T04:52:00;19.40;;;5.55;;
52946;SDS011;45776;40.400;17.260;2022-09-13T04:54:26;13.88;;;4.63;;
52946;SDS011;45776;40.400;17.260;2022-09-13T04:56:51;17.60;;;4.75;;
52946;SDS011;45776;40.400;17.260;2022-09-13T04:59:17;13.10;;;4.22;;
52946;SDS011;45776;40.400;17.260;2022-09-13T05:01:43;10.65;;;3.08;;
52946;SDS011;45776;40.400;17.260;2022-09-13T05:04:09;4.55;;;2.00;;
52946;SDS011;45776;40.400;17.260;2022-09-13T05:06:35;6.25;;;3.15;;
52946;SDS011;45776;40.400;17.260;2022-09-13T05:09:00;5.85;;;2.20;;
52946;SDS011;45776;40.400;17.260;2022-09-13T05:11:27;8.80;;;2.80;;
52946;SDS011;45776;40.400;17.260;2022-09-13T05:13:53;2.47;;;1.02;;
52946;SDS011;45776;40.400;17.260;2022-09-13T05:16:24;3.20;;;1.50;;
52946;SDS011;45776;40.400;17.260;2022-09-13T05:18:51;7.80;;;1.27;;
52946;SDS011;45776;40.400;17.260;2022-09-13T05:21:17;6.03;;;1.30;;
52946;SDS011;45776;40.400;17.260;2022-09-13T05:23:44;2.97;;;0.90;;
52946;SDS011;45776;40.400;17.260;2022-09-13T05:26:12;2.25;;;0.90;;
52946;SDS011;45776;40.400;17.260;2022-09-13T05:28:38;4.32;;;2.25;;
52946;SDS011;45776;40.400;17.260;2022-09-13T05:31:04;3.75;;;0.98;;
52946;SDS011;45776;40.400;17.260;2022-09-13T05:33:35;1.08;;;0.85;;
52946;SDS011;45776;40.400;17.260;2022-09-13T05:36:02;2.92;;;0.85;;
52946;SDS011;45776;40.400;17.260;2022-09-13T05:38:29;1.17;;;0.73;;
52946;SDS011;45776;40.400;17.260;2022-09-13T05:41:02;1.00;;;0.80;;
52946;SDS011;45776;40.400;17.260;2022-09-13T05:43:30;6.20;;;0.88;;
52946;SDS011;45776;40.400;17.260;2022-09-13T05:46:08;0.88;;;0.75;;
52946;SDS011;45776;40.400;17.260;2022-09-13T05:48:36;2.63;;;0.93;;
52946;SDS011;45776;40.400;17.260;2022-09-13T05:53:38;1.42;;;0.90;;
52946;SDS011;45776;40.400;17.260;2022-09-13T05:56:06;2.70;;;0.70;;
52946;SDS011;45776;40.400;17.260;2022-09-13T05:58:32;3.03;;;0.85;;
52946;SDS011;45776;40.400;17.260;2022-09-13T06:00:59;0.88;;;0.70;;
52946;SDS011;45776;40.400;17.260;2022-09-13T06:03:25;3.00;;;0.98;;
52946;SDS011;45776;40.400;17.260;2022-09-13T06:05:53;3.00;;;1.25;;
52946;SDS011;45776;40.400;17.260;2022-09-13T06:08:26;3.38;;;1.30;;
52946;SDS011;45776;40.400;17.260;2022-09-13T06:11:00;2.22;;;0.98;;
52946;SDS011;45776;40.400;17.260;2022-09-13T06:13:27;2.80;;;1.20;;
52946;SDS011;45776;40.400;17.260;2022-09-13T06:15:54;8.63;;;4.07;;
52946;SDS011;45776;40.400;17.260;2022-09-13T06:18:20;4.75;;;1.00;;
52946;SDS011;45776;40.400;17.260;2022-09-13T06:20:46;6.75;;;1.17;;
52946;SDS011;45776;40.400;17.260;2022-09-13T06:23:13;5.55;;;1.80;;
52946;SDS011;45776;40.400;17.260;2022-09-13T06:25:39;3.97;;;1.27;;
52946;SDS011;45776;40.400;17.260;2022-09-13T06:28:05;1.75;;;0.85;;
52946;SDS011;45776;40.400;17.260;2022-09-13T06:30:31;4.65;;;1.13;;
52946;SDS011;45776;40.400;17.260;2022-09-13T06:32:57;5.95;;;1.27;;
52946;SDS011;45776;40.400;17.260;2022-09-13T06:35:22;3.70;;;1.10;;
52946;SDS011;45776;40.400;17.260;2022-09-13T06:37:48;3.50;;;1.10;;
52946;SDS011;45776;40.400;17.260;2022-09-13T06:40:14;5.03;;;1.00;;
52946;SDS011;45776;40.400;17.260;2022-09-13T06:42:41;6.63;;;1.58;;
52946;SDS011;45776;40.400;17.260;2022-09-13T06:45:07;1.80;;;0.93;;
52946;SDS011;45776;40.400;17.260;2022-09-13T06:47:33;5.03;;;0.82;;
52946;SDS011;45776;40.400;17.260;2022-09-13T06:49:59;1.60;;;0.90;;
52946;SDS011;45776;40.400;17.260;2022-09-13T06:52:25;5.88;;;1.30;;
52946;SDS011;45776;40.400;17.260;2022-09-13T06:54:52;5.18;;;1.27;;
52946;SDS011;45776;40.400;17.260;2022-09-13T06:57:17;3.22;;;1.20;;
52946;SDS011;45776;40.400;17.260;2022-09-13T06:59:43;7.55;;;1.63;;
52946;SDS011;45776;40.400;17.260;2022-09-13T07:02:09;7.07;;;1.65;;
52946;SDS011;45776;40.400;17.260;2022-09-13T07:04:34;6.50;;;1.60;;
52946;SDS011;45776;40.400;17.260;2022-09-13T07:07:00;3.08;;;0.90;;
52946;SDS011;45776;40.400;17.260;2022-09-13T07:09:25;2.45;;;1.02;;
52946;SDS011;45776;40.400;17.260;2022-09-13T07:11:52;3.40;;;0.75;;
52946;SDS011;45776;40.400;17.260;2022-09-13T07:14:20;2.95;;;0.80;;
52946;SDS011;45776;40.400;17.260;2022-09-13T07:16:48;2.20;;;0.77;;
52946;SDS011;45776;40.400;17.260;2022-09-13T07:19:23;2.58;;;0.75;;
52946;SDS011;45776;40.400;17.260;2022-09-13T07:21:50;2.55;;;0.80;;
52946;SDS011;45776;40.400;17.260;2022-09-13T07:24:17;1.52;;;0.90;;
52946;SDS011;45776;40.400;17.260;2022-09-13T07:26:44;3.38;;;1.20;;
52946;SDS011;45776;40.400;17.260;2022-09-13T07:29:11;2.25;;;0.90;;
52946;SDS011;45776;40.400;17.260;2022-09-13T07:31:43;2.78;;;1.05;;
52946;SDS011;45776;40.400;17.260;2022-09-13T07:34:12;2.60;;;0.80;;
52946;SDS011;45776;40.400;17.260;2022-09-13T07:36:39;5.25;;;0.90;;
52946;SDS011;45776;40.400;17.260;2022-09-13T07:39:05;2.17;;;0.93;;
52946;SDS011;45776;40.400;17.260;2022-09-13T07:41:31;2.90;;;0.90;;
52946;SDS011;45776;40.400;17.260;2022-09-13T07:43:58;2.95;;;1.00;;
52946;SDS011;45776;40.400;17.260;2022-09-13T07:46:29;3.42;;;0.90;;
52946;SDS011;45776;40.400;17.260;2022-09-13T07:48:56;6.43;;;0.90;;
52946;SDS011;45776;40.400;17.260;2022-09-13T07:51:24;3.30;;;0.93;;
52946;SDS011;45776;40.400;17.260;2022-09-13T07:53:53;3.72;;;1.23;;
52946;SDS011;45776;40.400;17.260;2022-09-13T07:56:21;6.50;;;0.90;;
52946;SDS011;45776;40.400;17.260;2022-09-13T07:58:49;5.47;;;0.90;;
52946;SDS011;45776;40.400;17.260;2022-09-13T08:01:17;1.75;;;0.73;;
52946;SDS011;45776;40.400;17.260;2022-09-13T08:03:49;5.57;;;1.65;;
52946;SDS011;45776;40.400;17.260;2022-09-13T08:06:16;4.28;;;1.13;;
52946;SDS011;45776;40.400;17.260;2022-09-13T08:08:42;1.27;;;0.80;;
52946;SDS011;45776;40.400;17.260;2022-09-13T08:11:07;1.92;;;0.88;;
52946;SDS011;45776;40.400;17.260;2022-09-13T08:13:33;1.05;;;0.80;;
52946;SDS011;45776;40.400;17.260;2022-09-13T08:16:04;3.63;;;1.00;;
52946;SDS011;45776;40.400;17.260;2022-09-13T08:20:56;2.03;;;0.70;;
52946;SDS011;45776;40.400;17.260;2022-09-13T08:23:22;3.55;;;1.50;;
52946;SDS011;45776;40.400;17.260;2022-09-13T08:25:48;1.38;;;0.70;;
52946;SDS011;45776;40.400;17.260;2022-09-13T08:28:15;4.40;;;1.48;;
52946;SDS011;45776;40.400;17.260;2022-09-13T08:30:42;4.97;;;1.25;;
52946;SDS011;45776;40.400;17.260;2022-09-13T08:33:11;1.23;;;0.70;;
52946;SDS011;45776;40.400;17.260;2022-09-13T08:35:37;2.22;;;0.82;;
52946;SDS011;45776;40.400;17.260;2022-09-13T08:38:03;3.22;;;0.60;;
52946;SDS011;45776;40.400;17.260;2022-09-13T08:40:31;2.63;;;0.70;;
52946;SDS011;45776;40.400;17.260;2022-09-13T08:45:47;2.92;;;0.50;;
52946;SDS011;45776;40.400;17.260;2022-09-13T08:48:15;1.70;;;0.50;;
52946;SDS011;45776;40.400;17.260;2022-09-13T08:50:45;10.13;;;1.10;;
52946;SDS011;45776;40.400;17.260;2022-09-13T09:06:47;4.60;;;0.50;;
52946;SDS011;45776;40.400;17.260;2022-09-13T09:09:17;2.65;;;0.65;;
52946;SDS011;45776;40.400;17.260;2022-09-13T09:14:57;3.63;;;0.80;;
52946;SDS011;45776;40.400;17.260;2022-09-13T09:17:31;2.55;;;0.68;;
52946;SDS011;45776;40.400;17.260;2022-09-13T09:23:04;0.70;;;0.50;;
52946;SDS011;45776;40.400;17.260;2022-09-13T09:25:36;1.60;;;0.60;;
52946;SDS011;45776;40.400;17.260;2022-09-13T09:28:08;1.10;;;0.60;;
52946;SDS011;45776;40.400;17.260;2022-09-13T09:30:58;1.05;;;0.70;;
52946;SDS011;45776;40.400;17.260;2022-09-13T09:36:27;2.13;;;0.70;;
52946;SDS011;45776;40.400;17.260;2022-09-13T09:39:03;0.70;;;0.55;;
52946;SDS011;45776;40.400;17.260;2022-09-13T09:41:33;1.85;;;0.88;;
52946;SDS011;45776;40.400;17.260;2022-09-13T09:44:20;1.90;;;0.80;;
52946;SDS011;45776;40.400;17.260;2022-09-13T09:46:54;2.05;;;0.60;;
52946;SDS011;45776;40.400;17.260;2022-09-13T09:52:37;0.60;;;0.40;;
52946;SDS011;45776;40.400;17.260;2022-09-13T09:55:44;1.38;;;0.57;;
52946;SDS011;45776;40.400;17.260;2022-09-13T09:58:14;1.55;;;0.43;;
52946;SDS011;45776;40.400;17.260;2022-09-13T10:04:05;0.68;;;0.30;;
52946;SDS011;45776;40.400;17.260;2022-09-13T10:06:42;1.33;;;0.50;;
52946;SDS011;45776;40.400;17.260;2022-09-13T10:11:58;1.95;;;0.60;;
52946;SDS011;45776;40.400;17.260;2022-09-13T10:20:04;3.60;;;0.40;;
52946;SDS011;45776;40.400;17.260;2022-09-13T10:22:45;0.98;;;0.60;;
52946;SDS011;45776;40.400;17.260;2022-09-13T10:25:39;1.38;;;1.15;;
52946;SDS011;45776;40.400;17.260;2022-09-13T10:28:12;2.80;;;0.68;;
52946;SDS011;45776;40.400;17.260;2022-09-13T10:31:27;4.13;;;0.50;;
52946;SDS011;45776;40.400;17.260;2022-09-13T10:36:11;0.50;;;0.45;;
52946;SDS011;45776;40.400;17.260;2022-09-13T10:38:50;1.67;;;0.50;;
52946;SDS011;45776;40.400;17.260;2022-09-13T10:41:38;2.67;;;0.70;;
52946;SDS011;45776;40.400;17.260;2022-09-13T10:44:21;2.95;;;0.43;;
52946;SDS011;45776;40.400;17.260;2022-09-13T10:46:47;10.90;;;4.43;;
52946;SDS011;45776;40.400;17.260;2022-09-13T10:52:33;4.55;;;0.70;;
52946;SDS011;45776;40.400;17.260;2022-09-13T10:57:51;2.35;;;0.55;;
52946;SDS011;45776;40.400;17.260;2022-09-13T11:00:22;3.13;;;0.68;;
52946;SDS011;45776;40.400;17.260;2022-09-13T11:08:55;2.85;;;0.80;;
52946;SDS011;45776;40.400;17.260;2022-09-13T11:11:39;0.75;;;0.47;;
52946;SDS011;45776;40.400;17.260;2022-09-13T11:37:44;2.65;;;0.60;;
52946;SDS011;45776;40.400;17.260;2022-09-13T11:49:00;3.03;;;0.60;;
52946;SDS011;45776;40.400;17.260;2022-09-13T11:54:17;0.90;;;0.60;;
52946;SDS011;45776;40.400;17.260;2022-09-13T11:56:46;1.58;;;0.50;;
52946;SDS011;45776;40.400;17.260;2022-09-13T12:01:55;3.05;;;0.60;;
52946;SDS011;45776;40.400;17.260;2022-09-13T12:04:25;2.58;;;0.40;;
52946;SDS011;45776;40.400;17.260;2022-09-13T12:07:29;1.65;;;0.60;;
52946;SDS011;45776;40.400;17.260;2022-09-13T12:12:54;1.30;;;0.50;;
52946;SDS011;45776;40.400;17.260;2022-09-13T12:17:57;2.75;;;0.50;;
52946;SDS011;45776;40.400;17.260;2022-09-13T12:20:31;0.98;;;0.55;;
52946;SDS011;45776;40.400;17.260;2022-09-13T12:23:01;1.02;;;0.50;;
52946;SDS011;45776;40.400;17.260;2022-09-13T12:25:54;2.60;;;1.42;;
52946;SDS011;45776;40.400;17.260;2022-09-13T12:28:22;4.82;;;0.60;;
52946;SDS011;45776;40.400;17.260;2022-09-13T12:30:56;2.45;;;0.55;;
52946;SDS011;45776;40.400;17.260;2022-09-13T12:33:26;3.97;;;0.50;;
52946;SDS011;45776;40.400;17.260;2022-09-13T12:35:56;2.05;;;0.47;;
52946;SDS011;45776;40.400;17.260;2022-09-13T12:47:46;1.77;;;0.60;;
52946;SDS011;45776;40.400;17.260;2022-09-13T12:53:06;1.08;;;0.50;;
52946;SDS011;45776;40.400;17.260;2022-09-13T13:01:33;1.48;;;0.43;;
52946;SDS011;45776;40.400;17.260;2022-09-13T13:06:53;1.42;;;0.90;;
52946;SDS011;45776;40.400;17.260;2022-09-13T13:09:36;2.28;;;0.70;;
52946;SDS011;45776;40.400;17.260;2022-09-13T13:12:09;1.50;;;0.93;;
52946;SDS011;45776;40.400;17.260;2022-09-13T13:14:54;1.75;;;0.73;;
52946;SDS011;45776;40.400;17.260;2022-09-13T13:19:58;1.48;;;0.47;;
52946;SDS011;45776;40.400;17.260;2022-09-13T13:44:54;3.08;;;0.65;;
52946;SDS011;45776;40.400;17.260;2022-09-13T13:52:38;17.20;;;1.33;;
52946;SDS011;45776;40.400;17.260;2022-09-13T14:00:57;1.88;;;0.52;;
52946;SDS011;45776;40.400;17.260;2022-09-13T14:21:35;1.83;;;0.60;;
52946;SDS011;45776;40.400;17.260;2022-09-13T14:26:38;0.95;;;0.40;;
52946;SDS011;45776;40.400;17.260;2022-09-13T14:29:07;0.98;;;0.50;;
52946;SDS011;45776;40.400;17.260;2022-09-13T14:31:34;0.90;;;0.50;;
52946;SDS011;45776;40.400;17.260;2022-09-13T14:34:01;1.08;;;0.50;;
52946;SDS011;45776;40.400;17.260;2022-09-13T14:36:27;0.70;;;0.40;;
52946;SDS011;45776;40.400;17.260;2022-09-13T14:38:57;1.23;;;0.30;;
52946;SDS011;45776;40.400;17.260;2022-09-13T14:41:32;1.33;;;0.43;;
52946;SDS011;45776;40.400;17.260;2022-09-13T14:47:06;0.43;;;0.30;;
52946;SDS011;45776;40.400;17.260;2022-09-13T14:49:40;3.13;;;0.73;;
52946;SDS011;45776;40.400;17.260;2022-09-13T14:52:16;6.40;;;0.60;;
52946;SDS011;45776;40.400;17.260;2022-09-13T14:55:04;0.80;;;0.50;;
52946;SDS011;45776;40.400;17.260;2022-09-13T14:57:39;2.83;;;0.47;;
52946;SDS011;45776;40.400;17.260;2022-09-13T15:00:21;2.30;;;0.60;;
52946;SDS011;45776;40.400;17.260;2022-09-13T15:02:52;0.52;;;0.30;;
52946;SDS011;45776;40.400;17.260;2022-09-13T15:05:31;2.73;;;0.40;;
52946;SDS011;45776;40.400;17.260;2022-09-13T15:07:58;0.50;;;0.40;;
52946;SDS011;45776;40.400;17.260;2022-09-13T15:17:56;2.55;;;0.40;;
52946;SDS011;45776;40.400;17.260;2022-09-13T15:20:27;0.60;;;0.47;;
52946;SDS011;45776;40.400;17.260;2022-09-13T15:23:12;0.98;;;0.40;;
52946;SDS011;45776;40.400;17.260;2022-09-13T15:25:39;2.15;;;0.60;;
52946;SDS011;45776;40.400;17.260;2022-09-13T15:28:15;1.02;;;0.43;;
52946;SDS011;45776;40.400;17.260;2022-09-13T15:30:46;0.45;;;0.45;;
52946;SDS011;45776;40.400;17.260;2022-09-13T15:35:38;0.60;;;0.50;;
52946;SDS011;45776;40.400;17.260;2022-09-13T15:40:46;0.88;;;0.40;;
52946;SDS011;45776;40.400;17.260;2022-09-13T15:43:22;0.63;;;0.38;;
52946;SDS011;45776;40.400;17.260;2022-09-13T15:45:47;0.90;;;0.35;;
52946;SDS011;45776;40.400;17.260;2022-09-13T15:48:26;2.05;;;0.50;;
52946;SDS011;45776;40.400;17.260;2022-09-13T15:51:04;0.30;;;0.28;;
52946;SDS011;45776;40.400;17.260;2022-09-13T15:53:33;0.70;;;0.47;;
52946;SDS011;45776;40.400;17.260;2022-09-13T15:55:59;1.10;;;0.40;;
52946;SDS011;45776;40.400;17.260;2022-09-13T15:58:26;0.50;;;0.40;;
52946;SDS011;45776;40.400;17.260;2022-09-13T16:00:51;1.30;;;0.45;;
52946;SDS011;45776;40.400;17.260;2022-09-13T16:03:17;0.52;;;0.40;;
52946;SDS011;45776;40.400;17.260;2022-09-13T16:05:42;0.70;;;0.47;;
52946;SDS011;45776;40.400;17.260;2022-09-13T16:08:09;3.25;;;0.40;;
52946;SDS011;45776;40.400;17.260;2022-09-13T16:10:35;1.95;;;0.65;;
52946;SDS011;45776;40.400;17.260;2022-09-13T16:13:01;0.47;;;0.43;;
52946;SDS011;45776;40.400;17.260;2022-09-13T16:15:26;2.67;;;0.40;;
52946;SDS011;45776;40.400;17.260;2022-09-13T16:17:52;2.13;;;0.65;;
52946;SDS011;45776;40.400;17.260;2022-09-13T16:20:18;1.60;;;0.50;;
52946;SDS011;45776;40.400;17.260;2022-09-13T16:22:44;2.00;;;0.60;;
52946;SDS011;45776;40.400;17.260;2022-09-13T16:25:12;1.65;;;0.52;;
52946;SDS011;45776;40.400;17.260;2022-09-13T16:27:42;2.88;;;0.70;;
52946;SDS011;45776;40.400;17.260;2022-09-13T16:30:11;1.45;;;0.50;;
52946;SDS011;45776;40.400;17.260;2022-09-13T16:32:42;0.60;;;0.38;;
52946;SDS011;45776;40.400;17.260;2022-09-13T16:35:08;2.25;;;0.80;;
52946;SDS011;45776;40.400;17.260;2022-09-13T16:37:35;1.27;;;0.50;;
52946;SDS011;45776;40.400;17.260;2022-09-13T16:40:01;0.57;;;0.40;;
52946;SDS011;45776;40.400;17.260;2022-09-13T16:42:27;2.53;;;0.32;;
52946;SDS011;45776;40.400;17.260;2022-09-13T16:44:53;0.95;;;0.60;;
52946;SDS011;45776;40.400;17.260;2022-09-13T16:47:18;0.30;;;0.30;;
52946;SDS011;45776;40.400;17.260;2022-09-13T16:49:44;1.67;;;0.45;;
52946;SDS011;45776;40.400;17.260;2022-09-13T16:52:09;1.88;;;0.40;;
52946;SDS011;45776;40.400;17.260;2022-09-13T16:54:35;2.30;;;0.50;;
52946;SDS011;45776;40.400;17.260;2022-09-13T16:57:02;0.95;;;0.40;;
52946;SDS011;45776;40.400;17.260;2022-09-13T16:59:29;0.85;;;0.60;;
52946;SDS011;45776;40.400;17.260;2022-09-13T17:01:55;0.95;;;0.45;;
52946;SDS011;45776;40.400;17.260;2022-09-13T17:04:21;0.85;;;0.40;;
52946;SDS011;45776;40.400;17.260;2022-09-13T17:06:47;0.88;;;0.50;;
52946;SDS011;45776;40.400;17.260;2022-09-13T17:09:12;3.40;;;0.60;;
52946;SDS011;45776;40.400;17.260;2022-09-13T17:11:39;5.07;;;0.45;;
52946;SDS011;45776;40.400;17.260;2022-09-13T17:14:06;4.55;;;0.63;;
52946;SDS011;45776;40.400;17.260;2022-09-13T17:16:43;3.90;;;0.60;;
52946;SDS011;45776;40.400;17.260;2022-09-13T17:19:17;1.95;;;0.57;;
52946;SDS011;45776;40.400;17.260;2022-09-13T17:21:44;3.47;;;0.75;;
52946;SDS011;45776;40.400;17.260;2022-09-13T17:24:10;1.58;;;0.60;;
52946;SDS011;45776;40.400;17.260;2022-09-13T17:26:35;1.70;;;0.80;;
52946;SDS011;45776;40.400;17.260;2022-09-13T17:29:01;3.00;;;1.00;;
52946;SDS011;45776;40.400;17.260;2022-09-13T17:31:27;3.47;;;0.60;;
52946;SDS011;45776;40.400;17.260;2022-09-13T17:33:52;2.55;;;0.52;;
52946;SDS011;45776;40.400;17.260;2022-09-13T17:36:18;3.70;;;0.70;;
52946;SDS011;45776;40.400;17.260;2022-09-13T17:38:44;1.98;;;0.50;;
52946;SDS011;45776;40.400;17.260;2022-09-13T17:41:11;1.42;;;0.60;;
52946;SDS011;45776;40.400;17.260;2022-09-13T17:43:39;2.63;;;1.00;;
52946;SDS011;45776;40.400;17.260;2022-09-13T17:46:26;2.45;;;0.88;;
52946;SDS011;45776;40.400;17.260;2022-09-13T17:48:54;4.40;;;1.10;;
52946;SDS011;45776;40.400;17.260;2022-09-13T17:51:22;5.38;;;1.25;;
52946;SDS011;45776;40.400;17.260;2022-09-13T17:53:52;1.75;;;0.88;;
52946;SDS011;45776;40.400;17.260;2022-09-13T17:56:23;4.68;;;1.10;;
52946;SDS011;45776;40.400;17.260;2022-09-13T17:58:53;3.35;;;0.80;;
52946;SDS011;45776;40.400;17.260;2022-09-13T18:01:19;4.65;;;0.82;;
52946;SDS011;45776;40.400;17.260;2022-09-13T18:03:45;2.92;;;0.80;;
52946;SDS011;45776;40.400;17.260;2022-09-13T18:06:11;3.55;;;0.80;;
52946;SDS011;45776;40.400;17.260;2022-09-13T18:08:38;8.32;;;0.82;;
52946;SDS011;45776;40.400;17.260;2022-09-13T18:11:04;3.67;;;0.95;;
52946;SDS011;45776;40.400;17.260;2022-09-13T18:13:35;2.07;;;1.37;;
52946;SDS011;45776;40.400;17.260;2022-09-13T18:18:29;4.35;;;1.20;;
52946;SDS011;45776;40.400;17.260;2022-09-13T18:20:55;6.63;;;1.90;;
52946;SDS011;45776;40.400;17.260;2022-09-13T18:23:21;2.65;;;1.42;;
52946;SDS011;45776;40.400;17.260;2022-09-13T18:26:01;3.13;;;1.15;;
52946;SDS011;45776;40.400;17.260;2022-09-13T18:28:29;2.47;;;1.60;;
52946;SDS011;45776;40.400;17.260;2022-09-13T18:30:57;2.03;;;1.40;;
52946;SDS011;45776;40.400;17.260;2022-09-13T18:33:24;2.97;;;1.10;;
52946;SDS011;45776;40.400;17.260;2022-09-13T18:36:06;4.60;;;1.52;;
52946;SDS011;45776;40.400;17.260;2022-09-13T18:38:37;6.38;;;1.33;;
52946;SDS011;45776;40.400;17.260;2022-09-13T18:43:30;5.15;;;1.52;;
52946;SDS011;45776;40.400;17.260;2022-09-13T18:45:57;2.25;;;1.40;;
52946;SDS011;45776;40.400;17.260;2022-09-13T18:48:27;3.20;;;1.80;;
52946;SDS011;45776;40.400;17.260;2022-09-13T18:50:54;5.47;;;1.70;;
52946;SDS011;45776;40.400;17.260;2022-09-13T18:53:20;3.35;;;1.50;;
52946;SDS011;45776;40.400;17.260;2022-09-13T18:55:45;3.83;;;1.50;;
52946;SDS011;45776;40.400;17.260;2022-09-13T18:58:11;4.97;;;1.85;;
52946;SDS011;45776;40.400;17.260;2022-09-13T19:00:37;3.85;;;1.30;;
52946;SDS011;45776;40.400;17.260;2022-09-13T19:03:03;5.50;;;1.33;;